CDT,Max TemperatureF,Mean TemperatureF,Min TemperatureF,Max Dew PointF,MeanDew PointF,Min DewpointF,Max Humidity, Mean Humidity, Min Humidity, Max Sea Level PressureIn, Mean Sea Level PressureIn, Min Sea Level PressureIn, Max VisibilityMiles, Mean VisibilityMiles, Min VisibilityMiles, Max Wind SpeedMPH, Mean Wind SpeedMPH, Max Gust SpeedMPH,PrecipitationIn, CloudCover, Events, WindDirDegrees
2010-10-1,79,62,44,54,44,40,90,59,24,30.19,30.13,30.04,10,9,5,15,3,23,0.00,1,,269
2010-10-2,61,52,43,45,38,31,85,60,34,30.43,30.35,30.21,10,10,10,12,7,21,0.00,0,,3
2010-10-3,62,49,36,38,35,31,92,63,32,30.44,30.39,30.29,10,10,10,12,2,,0.00,0,,133
2010-10-4,67,54,41,39,36,33,81,56,28,30.34,30.30,30.21,10,9,5,16,9,22,0.00,0,,147
2010-10-5,77,62,46,46,42,40,81,53,30,30.28,30.25,30.18,10,8,3,17,8,22,0.00,0,,148
2010-10-6,77,64,52,53,46,31,75,53,20,30.21,30.19,30.16,10,10,7,12,6,18,0.00,0,,322
2010-10-7,76,58,41,41,36,29,86,50,18,30.28,30.21,30.11,10,8,1,8,2,,0.00,0,,159
2010-10-8,90,70,50,52,46,40,78,48,22,30.09,29.98,29.89,10,8,2,14,4,21,0.00,0,,164
2010-10-9,78,66,54,56,50,47,79,55,33,29.96,29.93,29.89,10,10,4,10,4,,0.00,0,Rain,172
2010-10-10,77,62,47,51,47,43,92,64,30,29.98,29.93,29.86,10,10,10,7,2,,0.00,0,,245
2010-10-11,72,64,57,54,51,48,87,65,44,29.92,29.89,29.86,10,10,3,9,3,,0.00,6,Rain,336
2010-10-12,72,60,49,54,49,41,94,69,38,30.19,30.04,29.91,10,10,7,21,7,28,0.00,1,,316
2010-10-13,69,54,39,42,34,25,91,57,20,30.36,30.31,30.27,10,10,7,16,7,22,0.04,0,Thunderstorm,300
2010-10-14,76,56,37,39,33,29,86,49,18,30.28,30.13,30.03,10,10,7,18,4,24,0.00,0,,284
2010-10-15,73,54,36,41,36,34,91,56,24,30.17,30.10,29.99,10,10,5,12,5,20,0.00,0,,187
2010-10-16,71,59,47,45,39,30,81,48,22,30.15,30.02,29.92,10,10,7,15,7,22,0.00,0,,18
2010-10-17,66,50,34,34,30,23,86,51,20,30.21,30.14,30.01,10,10,10,10,2,16,0.00,0,,87
2010-10-18,63,52,41,39,33,29,76,52,29,30.13,30.07,30.03,10,10,3,7,1,,0.00,0,,6
2010-10-19,70,51,32,39,33,29,94,63,24,30.08,30.02,29.89,10,9,4,13,4,18,0.00,1,,258
2010-10-20,76,56,36,36,32,27,84,50,17,29.99,29.95,29.90,10,10,4,21,6,28,0.00,0,,284
2010-10-21,65,50,36,37,31,24,87,53,21,30.13,30.05,29.99,10,10,3,8,3,,0.00,0,,79
2010-10-22,72,60,47,53,40,30,59,50,38,29.98,29.90,29.81,10,9,5,14,6,20,0.00,0,,127
2010-10-23,77,68,60,61,56,51,90,70,40,29.81,29.70,29.60,10,10,5,16,8,24,0.00,5,Thunderstorm,145
2010-10-24,62,58,55,55,53,51,94,85,70,29.63,29.61,29.58,10,8,1,16,10,21,0.00,5,,218
2010-10-25,72,60,49,55,51,48,97,78,46,29.55,29.24,29.01,10,9,1,24,9,32,0.30,2,Rain,146
2010-10-26,60,52,45,47,38,31,91,65,33,29.41,29.23,29.08,10,10,4,39,23,48,0.10,7,Rain,269
2010-10-27,52,44,37,33,31,25,75,56,37,30.13,29.74,29.48,10,10,7,41,20,52,0.00,3,,269
2010-10-28,53,40,27,30,23,14,92,58,21,30.44,30.36,30.18,10,10,7,20,12,26,0.00,1,,302
2010-10-29,71,52,32,31,27,22,83,42,19,30.39,30.13,29.89,10,10,2,22,7,30,0.00,0,,164
2010-10-30,68,54,39,37,34,31,79,50,25,30.02,29.92,29.84,10,10,7,14,7,18,0.00,0,,321
2010-10-31,52,44,37,36,35,33,90,69,49,30.21,30.13,30.07,10,9,5,14,4,16,0.00,1,,64